Time;durP1;ratioP1;P1;durP2;ratioP2;P2;SDS_P1;SDS_P2;PMS_P1;PMS_P2;Temp;Humidity;BMP_temperature;BMP_pressure;BME280_temperature;BME280_humidity;BME280_pressure;Samples;Min_cycle;Max_cycle;Signal;HPM_P1;HPM_P2
2023/12/17 00:00:19;;;;;;;10.45;4.20;;;;;;;0.22;85.64;102868.66;4955536;28;20055;-94
2023/12/17 00:02:46;;;;;;;11.82;4.68;;;;;;;0.07;85.88;102868.53;4951662;29;20047;-92
2023/12/17 00:05:34;;;;;;;14.13;7.55;;;;;;;0.15;86.20;102884.56;4953658;28;20054;-93
2023/12/17 00:08:01;;;;;;;8.90;5.03;;;;;;;0.19;86.21;102881.38;4945688;29;20099;-92
2023/12/17 00:10:28;;;;;;;10.60;4.82;;;;;;;0.12;86.23;102882.66;4951978;29;20055;-93
2023/12/17 00:12:55;;;;;;;8.55;5.82;;;;;;;0.21;86.12;102884.06;4949182;28;20050;-92
2023/12/17 00:15:22;;;;;;;12.48;7.18;;;;;;;0.14;85.77;102882.75;4951732;28;20050;-92
2023/12/17 00:17:49;;;;;;;14.05;6.28;;;;;;;-0.20;86.35;102873.63;4951439;28;20067;-93
2023/12/17 00:20:15;;;;;;;10.88;5.55;;;;;;;-0.02;86.29;102868.81;4934136;29;20051;-93
2023/12/17 00:22:42;;;;;;;10.93;7.60;;;;;;;-0.33;86.51;102860.69;4955644;28;20051;-93
2023/12/17 00:25:09;;;;;;;13.90;6.53;;;;;;;-0.18;86.51;102858.25;4951984;29;20051;-93
2023/12/17 00:27:36;;;;;;;10.05;5.82;;;;;;;-0.05;86.21;102866.03;4950845;29;20409;-93
2023/12/17 00:30:06;;;;;;;11.82;5.93;;;;;;;0.01;86.25;102869.81;4953703;28;20055;-93
2023/12/17 00:32:33;;;;;;;9.45;5.95;;;;;;;-0.07;86.49;102867.63;4951069;28;20122;-92
2023/12/17 00:35:00;;;;;;;8.65;5.65;;;;;;;-0.05;86.43;102880.63;4934706;29;20134;-93
2023/12/17 00:37:27;;;;;;;14.07;6.25;;;;;;;-0.28;86.60;102866.16;4949258;29;20469;-93
2023/12/17 00:39:53;;;;;;;12.88;6.18;;;;;;;-0.28;86.65;102861.88;4951972;28;20069;-91
2023/12/17 00:42:20;;;;;;;11.15;5.72;;;;;;;-0.14;86.58;102865.41;4928509;28;20062;-90
2023/12/17 00:44:47;;;;;;;9.55;5.30;;;;;;;-0.25;86.80;102851.75;4942195;28;20051;-90
2023/12/17 00:47:14;;;;;;;8.23;5.03;;;;;;;-0.21;86.35;102847.72;4945238;28;20055;-93
2023/12/17 00:49:41;;;;;;;9.60;5.07;;;;;;;-0.10;85.86;102856.16;4950497;28;20082;-92
2023/12/17 00:52:08;;;;;;;14.63;7.13;;;;;;;-0.28;86.01;102848.09;4938180;29;20047;-93
2023/12/17 00:54:35;;;;;;;75.05;17.30;;;;;;;-0.36;86.50;102843.31;4951169;28;20062;-92
2023/12/17 00:57:02;;;;;;;55.25;16.33;;;;;;;-0.46;86.93;102840.91;4946068;28;20054;-93
2023/12/17 00:59:29;;;;;;;22.90;8.68;;;;;;;-0.45;87.50;102842.69;4926302;28;20055;-93
2023/12/17 01:01:56;;;;;;;11.45;5.53;;;;;;;-0.27;87.13;102839.56;4946530;28;20134;-93
2023/12/17 01:04:23;;;;;;;16.13;7.00;;;;;;;-0.35;87.05;102844.19;4932882;29;20043;-93
2023/12/17 01:06:51;;;;;;;15.40;6.30;;;;;;;-0.39;87.62;102839.59;4946699;28;20078;-93
2023/12/17 01:09:18;;;;;;;12.82;6.30;;;;;;;-0.26;86.98;102841.34;4946502;28;20047;-93
2023/12/17 01:11:45;;;;;;;15.82;7.53;;;;;;;-0.52;87.26;102843.06;4945376;28;20151;-93
2023/12/17 01:14:12;;;;;;;13.55;5.47;;;;;;;-0.40;87.82;102845.59;4946538;28;20047;-93
2023/12/17 01:16:39;;;;;;;9.48;5.35;;;;;;;-0.30;87.34;102853.16;4944976;28;20048;-93
2023/12/17 01:19:06;;;;;;;13.77;6.13;;;;;;;-0.32;87.14;102859.00;4946073;28;20054;-93
2023/12/17 01:21:33;;;;;;;12.57;5.47;;;;;;;-0.38;87.49;102855.22;4931553;28;20575;-93
2023/12/17 01:24:00;;;;;;;8.73;5.75;;;;;;;-0.50;87.22;102853.50;4946201;28;20043;-91
2023/12/17 01:26:29;;;;;;;13.68;5.90;;;;;;;-0.46;87.35;102858.97;4946702;28;20142;-93
2023/12/17 01:28:56;;;;;;;12.32;6.00;;;;;;;-0.38;86.89;102860.38;4946673;28;20066;-91
2023/12/17 01:31:23;;;;;;;13.85;5.75;;;;;;;-0.42;87.00;102863.53;4944314;28;20051;-91
2023/12/17 01:33:50;;;;;;;13.02;6.00;;;;;;;-0.47;86.99;102867.47;4946603;28;20047;-90
2023/12/17 01:36:17;;;;;;;12.57;6.35;;;;;;;-0.41;86.88;102867.00;4945637;28;20083;-91
2023/12/17 01:38:44;;;;;;;10.88;5.32;;;;;;;-0.49;86.50;102876.81;4946553;28;20051;-91
2023/12/17 01:41:11;;;;;;;11.65;5.90;;;;;;;-0.68;86.73;102889.19;4946760;28;20048;-90
2023/12/17 01:43:38;;;;;;;14.05;5.57;;;;;;;-0.70;87.64;102891.66;4945695;28;20047;-90
2023/12/17 01:46:04;;;;;;;14.43;6.68;;;;;;;-0.68;87.95;102884.97;4940516;28;20056;-90
2023/12/17 01:48:32;;;;;;;10.50;5.22;;;;;;;-0.45;87.13;102896.88;4926425;28;20047;-91
2023/12/17 01:51:00;;;;;;;12.43;5.45;;;;;;;-0.52;86.69;102894.66;4941604;28;20055;-91
2023/12/17 01:53:28;;;;;;;12.38;6.10;;;;;;;-0.65;86.74;102899.72;4910995;28;20044;-92
2023/12/17 01:55:55;;;;;;;9.98;6.18;;;;;;;-0.88;86.81;102893.88;4928099;28;20455;-92
2023/12/17 01:58:22;;;;;;;12.32;6.22;;;;;;;-0.81;87.46;102893.50;4928273;28;20063;-92
2023/12/17 02:00:49;;;;;;;12.65;6.18;;;;;;;-0.89;87.92;102884.31;4926967;29;20051;-92
2023/12/17 02:03:16;;;;;;;12.68;6.60;;;;;;;-0.91;87.58;102881.66;4927895;28;20063;-92
2023/12/17 02:05:46;;;;;;;10.35;5.75;;;;;;;-0.90;87.72;102883.44;4946427;28;20058;-91
2023/12/17 02:08:13;;;;;;;11.43;5.13;;;;;;;-0.97;87.60;102870.91;4929704;28;20051;-92
2023/12/17 02:10:40;;;;;;;10.52;5.72;;;;;;;-0.96;87.63;102871.78;4941862;28;22331;-92
2023/12/17 02:13:10;;;;;;;14.07;6.72;;;;;;;-1.17;87.86;102877.22;4942844;28;20122;-91
2023/12/17 02:15:37;;;;;;;17.13;6.97;;;;;;;-0.91;87.87;102878.19;4944828;28;20385;-91
2023/12/17 02:18:05;;;;;;;15.52;6.55;;;;;;;-0.91;87.58;102875.59;4943066;28;20078;-91
2023/12/17 02:20:34;;;;;;;16.25;6.70;;;;;;;-1.00;87.84;102869.78;4927705;28;20070;-91
2023/12/17 02:23:02;;;;;;;15.82;6.90;;;;;;;-0.90;87.56;102867.06;4947942;28;20082;-92
2023/12/17 02:25:29;;;;;;;9.63;5.78;;;;;;;-1.03;87.70;102865.28;4947896;28;20062;-91
2023/12/17 02:27:59;;;;;;;18.23;7.63;;;;;;;-1.38;88.19;102865.34;4932705;28;20051;-92
2023/12/17 02:30:26;;;;;;;10.05;5.18;;;;;;;-1.08;88.58;102858.94;4949028;28;20054;-92
2023/12/17 02:32:53;;;;;;;12.05;5.75;;;;;;;-1.24;88.13;102865.56;4949515;28;20062;-92
2023/12/17 02:35:21;;;;;;;9.25;5.72;;;;;;;-1.30;89.07;102869.38;4951500;28;20055;-92
2023/12/17 02:37:49;;;;;;;13.27;6.90;;;;;;;-1.15;88.83;102865.31;4948229;28;20142;-91
2023/12/17 02:40:16;;;;;;;11.57;5.60;;;;;;;-1.02;88.55;102861.06;4949944;28;20051;-91
2023/12/17 02:42:44;;;;;;;12.02;6.25;;;;;;;-1.12;88.52;102854.34;4949440;28;20059;-91
2023/12/17 02:45:13;;;;;;;13.32;5.65;;;;;;;-1.17;88.74;102847.94;4949161;28;20043;-92
2023/12/17 02:47:40;;;;;;;10.02;4.95;;;;;;;-1.14;88.59;102846.50;4950337;28;20446;-92
2023/12/17 02:50:07;;;;;;;10.77;5.40;;;;;;;-0.98;88.29;102852.75;4950222;28;20051;-91
2023/12/17 02:52:34;;;;;;;14.75;6.20;;;;;;;-1.30;88.67;102843.63;4948866;28;20047;-91
2023/12/17 02:55:04;;;;;;;14.68;6.10;;;;;;;-1.32;89.21;102842.59;4949094;28;20047;-91
2023/12/17 02:57:31;;;;;;;24.88;9.48;;;;;;;-1.28;90.25;102840.34;4948703;28;20480;-91
2023/12/17 02:59:58;;;;;;;18.40;7.88;;;;;;;-1.31;90.63;102841.81;4946270;28;20113;-91
2023/12/17 03:02:25;;;;;;;13.85;5.68;;;;;;;-1.16;90.40;102842.00;4948407;28;20058;-92
2023/12/17 03:04:52;;;;;;;13.73;5.72;;;;;;;-1.20;90.47;102845.16;4947588;28;20107;-91
2023/12/17 03:07:19;;;;;;;14.32;6.57;;;;;;;-1.14;90.22;102846.50;4930903;29;20051;-91
2023/12/17 03:09:45;;;;;;;9.48;5.60;;;;;;;-1.16;90.36;102853.25;4950311;28;20063;-91
2023/12/17 03:12:12;;;;;;;9.82;5.22;;;;;;;-1.26;90.11;102866.22;4950282;28;20051;-91
2023/12/17 03:14:40;;;;;;;10.15;5.72;;;;;;;-0.91;89.30;102860.13;4957451;28;20090;-91
2023/12/17 03:17:07;;;;;;;9.63;5.60;;;;;;;-1.19;89.06;102852.09;4954358;28;20074;-92
2023/12/17 03:19:34;;;;;;;10.27;5.50;;;;;;;-1.24;89.61;102856.94;4955070;28;20416;-91
2023/12/17 03:22:01;;;;;;;15.15;6.20;;;;;;;-1.01;88.95;102848.28;4952960;28;20094;-92
2023/12/17 03:24:28;;;;;;;11.60;6.20;;;;;;;-1.06;88.43;102840.22;4952631;29;20082;-91
2023/12/17 03:26:55;;;;;;;10.52;5.50;;;;;;;-1.12;88.28;102842.34;4952165;29;20145;-91
2023/12/17 03:29:22;;;;;;;11.40;5.25;;;;;;;-1.19;88.45;102841.81;4954078;28;20047;-91
2023/12/17 03:31:49;;;;;;;12.50;5.95;;;;;;;-1.25;88.34;102831.94;4941197;28;20079;-91
2023/12/17 03:34:16;;;;;;;13.05;5.68;;;;;;;-1.19;88.26;102832.38;4948243;29;20043;-92
2023/12/17 03:36:43;;;;;;;15.43;5.90;;;;;;;-1.13;87.83;102830.25;4954851;29;20051;-91
2023/12/17 03:39:12;;;;;;;12.38;5.85;;;;;;;-1.23;88.11;102831.28;4940010;29;20059;-90
2023/12/17 03:41:44;;;;;;;13.40;5.32;;;;;;;-1.11;87.98;102831.25;4954873;29;20105;-91
2023/12/17 03:44:14;;;;;;;9.93;5.28;;;;;;;-1.17;88.00;102829.91;4935065;28;20051;-91
2023/12/17 03:46:41;;;;;;;11.13;5.78;;;;;;;-1.12;88.02;102819.13;4943272;28;20106;-92
2023/12/17 03:49:08;;;;;;;9.35;5.13;;;;;;;-1.24;88.57;102818.28;4931382;28;20188;-92
2023/12/17 03:51:35;;;;;;;10.43;5.28;;;;;;;-1.11;88.27;102808.06;4944807;28;20073;-91
2023/12/17 03:54:02;;;;;;;9.23;5.38;;;;;;;-1.31;88.63;102811.78;4944500;28;20138;-91
2023/12/17 03:56:29;;;;;;;8.27;4.65;;;;;;;-1.20;88.50;102806.50;4944737;28;20062;-93
2023/12/17 03:58:56;;;;;;;11.85;5.88;;;;;;;-1.28;88.59;102803.41;4944607;28;20054;-91
2023/12/17 04:01:23;;;;;;;9.82;4.90;;;;;;;-1.28;88.40;102805.97;4946154;28;20051;-91
2023/12/17 04:03:50;;;;;;;11.85;5.75;;;;;;;-1.28;88.43;102799.13;4948717;28;20102;-91
2023/12/17 04:06:18;;;;;;;12.73;6.00;;;;;;;-1.32;88.31;102803.97;4953438;28;20058;-92
2023/12/17 04:08:45;;;;;;;10.43;5.60;;;;;;;-1.40;88.11;102806.88;4951815;28;20055;-91
2023/12/17 04:11:12;;;;;;;10.35;5.78;;;;;;;-1.42;88.46;102808.47;4950384;28;20043;-92
2023/12/17 04:13:39;;;;;;;8.10;5.53;;;;;;;-1.35;88.47;102803.75;4950117;28;20146;-91
2023/12/17 04:16:06;;;;;;;13.50;6.53;;;;;;;-1.53;88.85;102805.91;4933886;29;20125;-91
2023/12/17 04:18:33;;;;;;;9.93;5.82;;;;;;;-1.50;89.25;102807.00;4918207;28;20086;-91
2023/12/17 04:21:01;;;;;;;11.70;5.60;;;;;;;-1.48;89.43;102813.16;4949489;28;20155;-92
2023/12/17 04:23:28;;;;;;;12.13;5.63;;;;;;;-1.60;89.61;102817.44;4933216;28;20058;-91
2023/12/17 04:25:55;;;;;;;8.18;4.82;;;;;;;-1.46;89.43;102816.75;4949204;28;20051;-92
2023/12/17 04:28:22;;;;;;;12.15;5.45;;;;;;;-1.43;88.82;102811.81;4933621;28;20059;-92
2023/12/17 04:30:49;;;;;;;8.60;4.80;;;;;;;-1.41;88.51;102805.06;4951293;28;20047;-92
2023/12/17 04:33:16;;;;;;;9.43;5.18;;;;;;;-1.41;88.03;102802.50;4948186;28;20055;-92
2023/12/17 04:35:43;;;;;;;8.90;5.50;;;;;;;-1.44;87.92;102803.97;4948643;28;20047;-91
2023/12/17 04:38:10;;;;;;;13.35;5.38;;;;;;;-1.50;88.32;102799.28;4952175;28;20047;-91
2023/12/17 04:40:37;;;;;;;11.05;5.38;;;;;;;-1.47;88.07;102809.81;4948304;28;20055;-91
2023/12/17 04:43:07;;;;;;;12.27;6.10;;;;;;;-1.50;88.04;102804.44;4956751;28;20059;-91
2023/12/17 04:45:34;;;;;;;10.90;5.75;;;;;;;-1.48;88.39;102792.53;4947968;28;20131;-92
2023/12/17 04:48:01;;;;;;;12.40;5.97;;;;;;;-1.45;88.56;102795.38;4930384;28;20078;-91
2023/12/17 04:50:28;;;;;;;10.63;5.90;;;;;;;-1.49;87.96;102785.63;4948247;28;20054;-91
2023/12/17 04:52:55;;;;;;;9.57;5.13;;;;;;;-1.45;88.09;102791.88;4947553;28;20075;-92
2023/12/17 04:55:22;;;;;;;11.45;5.75;;;;;;;-1.58;88.35;102796.16;4949671;28;20130;-91
2023/12/17 04:57:49;;;;;;;11.85;5.65;;;;;;;-1.44;88.22;102794.56;4950631;28;20960;-92
2023/12/17 05:00:16;;;;;;;11.07;5.15;;;;;;;-1.47;87.67;102794.34;4946404;28;20058;-92
2023/12/17 05:02:43;;;;;;;9.88;5.47;;;;;;;-1.63;88.19;102800.06;4931186;28;20081;-92
2023/12/17 05:05:11;;;;;;;14.60;6.15;;;;;;;-1.69;87.85;102806.47;4953384;28;20049;-91
2023/12/17 05:07:38;;;;;;;12.95;6.45;;;;;;;-1.59;88.10;102807.25;4916049;28;20077;-91
2023/12/17 05:10:06;;;;;;;10.70;7.00;;;;;;;-1.60;88.31;102814.84;4953317;28;20055;-92
2023/12/17 05:12:33;;;;;;;11.80;6.47;;;;;;;-1.58;88.66;102808.13;4949488;28;20091;-92
2023/12/17 05:15:00;;;;;;;10.68;6.20;;;;;;;-1.60;88.18;102812.28;4948856;28;20122;-91
2023/12/17 05:17:28;;;;;;;12.15;6.78;;;;;;;-1.61;88.58;102815.63;4949353;28;20130;-92
2023/12/17 05:19:55;;;;;;;9.45;5.90;;;;;;;-1.49;88.09;102821.69;4947146;28;20059;-92
2023/12/17 05:22:22;;;;;;;9.80;5.07;;;;;;;-1.46;87.72;102814.19;4953529;28;20079;-92
2023/12/17 05:24:49;;;;;;;10.63;5.47;;;;;;;-1.46;87.91;102821.03;4932817;28;20047;-92
2023/12/17 05:27:16;;;;;;;10.10;5.90;;;;;;;-1.49;88.09;102815.63;4948719;28;20063;-92
2023/12/17 05:29:43;;;;;;;15.57;6.70;;;;;;;-1.54;88.34;102812.72;4945636;28;20146;-91
2023/12/17 05:32:10;;;;;;;11.27;6.45;;;;;;;-1.55;88.50;102813.53;4929457;28;20051;-91
2023/12/17 05:34:37;;;;;;;9.55;5.60;;;;;;;-1.52;88.37;102811.16;4956412;28;20175;-92
2023/12/17 05:37:05;;;;;;;8.93;5.55;;;;;;;-1.64;88.19;102812.84;4947838;28;20048;-92
2023/12/17 05:39:31;;;;;;;9.52;5.65;;;;;;;-1.65;88.10;102808.47;4947398;28;20084;-91
2023/12/17 05:41:59;;;;;;;8.10;5.38;;;;;;;-1.65;88.04;102814.53;4946276;28;20059;-91
2023/12/17 05:44:27;;;;;;;9.63;5.63;;;;;;;-1.73;87.99;102810.50;4947048;28;20079;-91
2023/12/17 05:46:54;;;;;;;12.32;5.90;;;;;;;-1.79;88.49;102810.06;4932154;28;20063;-92
2023/12/17 05:49:21;;;;;;;9.38;5.43;;;;;;;-1.73;88.34;102807.91;4950300;28;20055;-92
2023/12/17 05:51:53;;;;;;;8.80;5.20;;;;;;;-1.72;88.04;102814.88;4947924;28;20048;-91
2023/12/17 05:54:20;;;;;;;8.38;5.30;;;;;;;-1.77;87.93;102813.63;4949014;28;20151;-91
2023/12/17 05:56:47;;;;;;;9.40;5.80;;;;;;;-1.77;87.92;102808.47;4955780;28;20158;-91
2023/12/17 05:59:14;;;;;;;10.35;5.93;;;;;;;-1.74;87.68;102793.25;4950002;28;20055;-92
2023/12/17 06:01:41;;;;;;;12.35;6.22;;;;;;;-1.73;87.76;102799.31;4933967;29;20075;-91
2023/12/17 06:04:12;;;;;;;10.20;5.47;;;;;;;-1.76;87.75;102807.69;4936762;29;20055;-91
2023/12/17 06:06:39;;;;;;;13.02;6.45;;;;;;;-1.73;87.92;102814.75;4952132;28;20051;-90
2023/12/17 06:09:07;;;;;;;11.30;6.22;;;;;;;-1.80;87.97;102805.69;4953114;28;20074;-91
2023/12/17 06:11:34;;;;;;;13.82;7.88;;;;;;;-1.92;88.20;102795.38;4948071;28;20079;-91
2023/12/17 06:14:03;;;;;;;15.82;8.32;;;;;;;-1.86;88.29;102803.53;4947686;28;20504;-92
2023/12/17 06:16:30;;;;;;;14.52;7.97;;;;;;;-1.81;88.49;102809.94;4954443;28;20058;-91
2023/12/17 06:18:58;;;;;;;17.67;8.70;;;;;;;-1.81;88.36;102807.38;4950433;28;20106;-91
2023/12/17 06:21:26;;;;;;;15.02;8.38;;;;;;;-1.87;88.03;102811.16;4951537;28;20138;-92
2023/12/17 06:24:02;;;;;;;18.92;9.93;;;;;;;-1.92;88.29;102808.25;4947653;28;20066;-91
2023/12/17 06:26:29;;;;;;;16.52;8.90;;;;;;;-1.97;88.34;102814.72;4938364;28;20050;-92
2023/12/17 06:28:57;;;;;;;17.27;9.38;;;;;;;-1.97;88.55;102818.22;4954557;28;20155;-92
2023/12/17 06:31:24;;;;;;;16.75;7.93;;;;;;;-1.98;88.45;102815.53;4949981;28;20047;-92
2023/12/17 06:33:54;;;;;;;17.48;8.32;;;;;;;-1.95;88.04;102813.19;4937086;29;20054;-92
2023/12/17 06:36:22;;;;;;;18.02;7.25;;;;;;;-1.99;88.05;102818.88;4949287;28;20054;-93
2023/12/17 06:38:52;;;;;;;14.05;7.53;;;;;;;-2.04;88.42;102807.31;4953982;28;20397;-95
2023/12/17 06:41:19;;;;;;;15.40;6.90;;;;;;;-1.93;88.02;102806.44;4975501;28;20035;-94
2023/12/17 06:43:51;;;;;;;12.00;7.05;;;;;;;-2.12;88.20;102804.19;4977628;28;20051;-95
2023/12/17 06:46:22;;;;;;;19.17;8.90;;;;;;;-2.04;88.39;102807.31;4974977;28;20039;-93
2023/12/17 06:49:12;;;;;;;18.25;7.88;;;;;;;-1.97;88.19;102814.72;4941730;28;20059;-91
2023/12/17 06:52:00;;;;;;;11.50;6.47;;;;;;;-2.03;87.99;102822.00;4943246;28;20047;-92
2023/12/17 06:54:27;;;;;;;11.82;7.30;;;;;;;-2.07;88.33;102814.81;4948963;28;20093;-92
2023/12/17 06:56:54;;;;;;;11.68;6.75;;;;;;;-2.07;88.75;102814.81;4946625;28;20138;-91
2023/12/17 06:59:21;;;;;;;12.07;6.70;;;;;;;-1.99;88.37;102817.19;4930302;28;20078;-92
2023/12/17 07:01:48;;;;;;;15.02;7.50;;;;;;;-1.95;88.28;102811.47;4926305;28;20439;-91
2023/12/17 07:04:14;;;;;;;14.57;7.43;;;;;;;-1.96;88.84;102821.66;4944750;28;20055;-91
2023/12/17 07:06:41;;;;;;;12.18;7.32;;;;;;;-1.96;88.93;102816.53;4944355;28;20142;-91
2023/12/17 07:09:08;;;;;;;16.70;7.90;;;;;;;-1.93;88.53;102816.75;4943349;28;20063;-90
2023/12/17 07:11:35;;;;;;;12.23;7.53;;;;;;;-1.94;88.53;102814.94;4942180;28;20118;-90
2023/12/17 07:14:02;;;;;;;15.55;8.55;;;;;;;-1.97;88.68;102809.56;4943399;28;20055;-91
2023/12/17 07:16:29;;;;;;;16.17;7.55;;;;;;;-1.95;88.84;102811.47;4939786;28;20082;-92
2023/12/17 07:18:56;;;;;;;15.50;7.47;;;;;;;-1.98;88.44;102810.38;4941307;28;20091;-91
2023/12/17 07:21:23;;;;;;;14.40;7.35;;;;;;;-2.11;88.55;102806.00;4926092;28;20055;-90
2023/12/17 07:23:50;;;;;;;9.93;6.65;;;;;;;-2.05;88.12;102808.13;4942957;28;20078;-91
2023/12/17 07:26:17;;;;;;;14.18;6.75;;;;;;;-1.98;88.13;102808.69;4946669;28;20102;-90
2023/12/17 07:28:48;;;;;;;14.50;8.55;;;;;;;-2.05;88.75;102810.72;4932170;28;20058;-89
2023/12/17 07:31:15;;;;;;;12.75;7.03;;;;;;;-2.03;88.62;102807.44;4930760;28;20122;-91
2023/12/17 07:33:42;;;;;;;17.10;7.88;;;;;;;-1.94;88.63;102804.66;4937762;28;20051;-90
2023/12/17 07:36:09;;;;;;;13.80;7.45;;;;;;;-1.94;88.49;102808.13;4951290;28;20078;-90
2023/12/17 07:38:37;;;;;;;11.57;7.13;;;;;;;-1.94;88.45;102804.66;4950707;28;20057;-89
2023/12/17 07:41:06;;;;;;;12.35;7.00;;;;;;;-1.93;88.09;102811.59;4949074;28;20058;-91
2023/12/17 07:43:34;;;;;;;11.40;6.32;;;;;;;-2.07;87.98;102818.31;4951833;28;20065;-91
2023/12/17 07:46:01;;;;;;;13.07;7.43;;;;;;;-1.99;88.10;102816.28;4947022;28;20590;-89
2023/12/17 07:48:28;;;;;;;14.60;7.28;;;;;;;-1.90;87.82;102816.97;4933987;29;20085;-90
2023/12/17 07:50:55;;;;;;;16.77;8.73;;;;;;;-1.95;88.61;102813.19;4950938;28;20134;-90
2023/12/17 07:53:22;;;;;;;16.77;7.40;;;;;;;-1.93;88.12;102807.38;4950034;28;20058;-90
2023/12/17 07:55:50;;;;;;;20.20;9.57;;;;;;;-1.88;88.80;102815.41;4950930;28;20682;-90
2023/12/17 07:58:17;;;;;;;15.65;8.95;;;;;;;-1.90;89.01;102809.25;4954042;28;20047;-91
2023/12/17 08:00:43;;;;;;;19.50;9.88;;;;;;;-1.89;88.80;102813.63;4951535;28;20523;-90
2023/12/17 08:03:11;;;;;;;15.50;8.90;;;;;;;-1.94;88.81;102810.72;4951592;28;20169;-91
2023/12/17 08:05:38;;;;;;;20.63;8.57;;;;;;;-1.90;89.07;102819.53;4932481;28;20534;-91
2023/12/17 08:08:04;;;;;;;12.82;7.88;;;;;;;-1.95;89.08;102802.88;4950867;28;20047;-90
2023/12/17 08:10:31;;;;;;;19.73;8.65;;;;;;;-1.94;89.13;102810.72;4951694;28;20051;-91
2023/12/17 08:12:58;;;;;;;16.00;7.75;;;;;;;-2.00;89.62;102804.19;4948620;28;20418;-90
2023/12/17 08:15:25;;;;;;;14.70;8.10;;;;;;;-1.88;89.96;102804.22;4949341;28;20460;-90
2023/12/17 08:17:52;;;;;;;15.75;8.93;;;;;;;-1.93;90.22;102809.03;4931787;28;20043;-90
2023/12/17 08:20:19;;;;;;;14.38;7.53;;;;;;;-1.91;90.54;102807.47;4947589;28;20623;-90
2023/12/17 08:22:45;;;;;;;17.67;8.68;;;;;;;-1.95;90.87;102810.59;4946692;28;20063;-89
2023/12/17 08:25:12;;;;;;;15.63;7.57;;;;;;;-1.93;90.93;102806.44;4942029;28;20054;-89
2023/12/17 08:27:42;;;;;;;14.02;7.80;;;;;;;-1.91;91.32;102804.91;4943016;28;20055;-89
2023/12/17 08:30:10;;;;;;;14.55;8.77;;;;;;;-1.84;91.36;102808.81;4940761;28;20145;-89
2023/12/17 08:32:37;;;;;;;15.38;8.48;;;;;;;-1.86;91.29;102803.53;4943655;28;20051;-89
2023/12/17 08:35:04;;;;;;;15.93;8.63;;;;;;;-1.73;91.35;102804.47;4946430;28;20121;-89
2023/12/17 08:37:31;;;;;;;14.80;8.20;;;;;;;-1.68;91.16;102808.25;4946070;28;20050;-89
2023/12/17 08:40:03;;;;;;;17.58;9.15;;;;;;;-1.72;91.30;102808.81;4938827;28;20052;-88
2023/12/17 08:42:29;;;;;;;16.75;8.98;;;;;;;-1.71;91.39;102808.03;4938937;28;20062;-89
2023/12/17 08:44:56;;;;;;;14.57;8.77;;;;;;;-1.66;91.51;102817.88;4947896;28;20130;-89
2023/12/17 08:47:24;;;;;;;16.00;9.85;;;;;;;-1.63;91.69;102815.53;4948198;28;20122;-90
2023/12/17 08:49:52;;;;;;;19.38;10.10;;;;;;;-1.62;91.79;102813.88;4949598;28;20066;-90
2023/12/17 08:52:19;;;;;;;18.77;9.73;;;;;;;-1.50;92.03;102825.03;4947972;28;20102;-90
2023/12/17 08:54:46;;;;;;;19.33;9.88;;;;;;;-1.50;91.95;102822.47;4949247;28;20505;-90
2023/12/17 08:57:13;;;;;;;18.60;9.45;;;;;;;-1.43;91.92;102816.09;4956083;28;20134;-90
2023/12/17 08:59:43;;;;;;;18.70;10.15;;;;;;;-1.35;91.99;102824.34;4931399;28;20520;-90
2023/12/17 09:02:10;;;;;;;21.15;10.70;;;;;;;-1.31;92.20;102823.78;4947562;28;20059;-89
2023/12/17 09:04:37;;;;;;;19.65;10.00;;;;;;;-1.28;92.27;102818.84;4947114;28;20142;-89
2023/12/17 09:07:04;;;;;;;18.92;10.35;;;;;;;-1.21;92.47;102818.50;4942531;28;20155;-90
2023/12/17 09:09:31;;;;;;;19.08;10.40;;;;;;;-1.18;92.39;102823.88;4945546;28;20138;-89
2023/12/17 09:11:58;;;;;;;25.50;11.10;;;;;;;-1.13;92.47;102822.53;4937657;28;20051;-89
2023/12/17 09:14:25;;;;;;;19.27;9.85;;;;;;;-1.09;92.50;102821.94;4952817;28;20059;-91
2023/12/17 09:16:52;;;;;;;19.63;9.60;;;;;;;-1.10;92.24;102812.44;4950846;28;20043;-90
2023/12/17 09:19:20;;;;;;;19.45;10.20;;;;;;;-1.00;92.06;102819.13;4951771;28;20089;-90
2023/12/17 09:21:47;;;;;;;20.15;10.45;;;;;;;-0.95;92.31;102819.44;4953363;28;20083;-91
2023/12/17 09:24:14;;;;;;;21.58;10.55;;;;;;;-0.92;92.28;102817.09;4952231;29;20141;-91
2023/12/17 09:26:40;;;;;;;19.50;10.60;;;;;;;-0.90;92.36;102821.56;4953335;28;20043;-91
2023/12/17 09:29:07;;;;;;;19.67;11.18;;;;;;;-0.89;92.39;102827.59;4929511;29;20130;-90
2023/12/17 09:31:34;;;;;;;25.33;11.63;;;;;;;-0.84;92.17;102821.09;4949057;29;20047;-90
2023/12/17 09:34:01;;;;;;;22.70;11.60;;;;;;;-0.83;92.10;102822.88;4953037;28;20055;-91
2023/12/17 09:36:28;;;;;;;21.13;10.18;;;;;;;-0.67;91.88;102814.50;4959401;28;20051;-90
2023/12/17 09:38:55;;;;;;;15.63;10.15;;;;;;;-0.74;91.77;102818.38;4956995;28;20118;-90
2023/12/17 09:41:23;;;;;;;22.25;11.55;;;;;;;-0.73;91.61;102820.13;4950038;28;20083;-89
2023/12/17 09:43:51;;;;;;;23.27;11.00;;;;;;;-0.71;91.76;102823.72;4921367;29;20062;-89
2023/12/17 09:46:18;;;;;;;20.58;11.05;;;;;;;-0.68;91.96;102828.22;4951209;29;20078;-90
2023/12/17 09:48:48;;;;;;;21.23;10.25;;;;;;;-0.63;91.81;102819.09;4949962;28;20063;-89
2023/12/17 09:51:17;;;;;;;18.23;9.88;;;;;;;-0.51;91.68;102825.91;4952310;28;20094;-89
2023/12/17 09:53:44;;;;;;;18.98;9.27;;;;;;;-0.44;91.63;102813.50;4954484;28;20047;-91
2023/12/17 09:56:12;;;;;;;23.67;11.25;;;;;;;-0.50;91.66;102818.25;4954096;28;20044;-91
2023/12/17 09:58:40;;;;;;;19.40;10.50;;;;;;;-0.42;91.65;102813.59;4941330;28;20056;-90
2023/12/17 10:01:07;;;;;;;21.63;10.43;;;;;;;-0.36;91.73;102814.03;4945298;28;20047;-92
2023/12/17 10:03:35;;;;;;;20.85;10.05;;;;;;;-0.28;91.67;102804.22;4951010;28;20459;-91
2023/12/17 10:06:02;;;;;;;19.00;10.00;;;;;;;-0.33;91.51;102811.66;4948827;29;20043;-90
2023/12/17 10:08:30;;;;;;;16.95;9.52;;;;;;;-0.31;91.70;102811.75;4947610;28;20369;-90
2023/12/17 10:10:57;;;;;;;20.55;10.05;;;;;;;-0.24;91.36;102808.81;4951387;28;20115;-91
2023/12/17 10:13:24;;;;;;;23.23;10.70;;;;;;;-0.18;91.30;102804.03;4950220;28;20086;-90
2023/12/17 10:15:55;;;;;;;20.00;10.30;;;;;;;-0.10;91.10;102801.97;4950161;28;20049;-89
2023/12/17 10:18:22;;;;;;;19.50;10.30;;;;;;;0.07;91.18;102795.34;4949100;28;20066;-90
2023/12/17 10:20:51;;;;;;;18.65;9.55;;;;;;;-0.03;91.11;102799.91;4952264;28;20099;-91
2023/12/17 10:23:18;;;;;;;22.25;9.98;;;;;;;0.08;90.90;102794.56;4949774;28;20283;-90
2023/12/17 10:25:45;;;;;;;18.42;9.45;;;;;;;0.13;90.89;102787.97;4951097;28;20047;-90
2023/12/17 10:28:13;;;;;;;19.65;9.32;;;;;;;0.14;90.49;102785.50;4950966;28;20087;-91
2023/12/17 10:30:41;;;;;;;18.25;8.95;;;;;;;0.19;90.48;102788.41;4953813;28;20087;-90
2023/12/17 10:33:14;;;;;;;20.48;9.18;;;;;;;0.24;90.47;102776.66;4955741;28;20058;-91
2023/12/17 10:35:42;;;;;;;18.77;9.27;;;;;;;0.27;90.34;102776.88;4934865;29;20111;-91
2023/12/17 10:38:12;;;;;;;18.00;9.18;;;;;;;0.28;90.19;102770.03;4947960;29;20110;-90
2023/12/17 10:40:41;;;;;;;15.48;8.77;;;;;;;0.37;89.90;102761.97;4941606;28;20055;-91
2023/12/17 10:43:10;;;;;;;17.60;8.48;;;;;;;0.55;90.03;102762.22;4938015;29;20106;-91
2023/12/17 10:45:38;;;;;;;19.15;10.05;;;;;;;0.52;90.24;102755.16;4954101;29;20054;-91
2023/12/17 10:48:05;;;;;;;19.27;9.30;;;;;;;0.60;90.00;102760.84;4954106;28;20047;-92
2023/12/17 10:50:35;;;;;;;19.05;9.30;;;;;;;0.66;89.59;102750.88;4952137;28;20091;-92
2023/12/17 10:53:02;;;;;;;18.35;9.90;;;;;;;0.69;89.77;102745.91;4941762;29;20078;-92
2023/12/17 10:55:31;;;;;;;28.75;13.00;;;;;;;0.72;89.72;102735.75;4953469;29;20048;-92
2023/12/17 10:58:07;;;;;;;15.68;8.52;;;;;;;0.74;89.87;102738.44;4945178;29;20059;-91
2023/12/17 11:00:36;;;;;;;25.30;13.77;;;;;;;0.72;89.59;102737.44;4952956;29;20047;-90
2023/12/17 11:03:06;;;;;;;20.13;9.98;;;;;;;0.84;89.53;102735.59;4954357;28;20102;-91
2023/12/17 11:05:37;;;;;;;18.73;9.80;;;;;;;0.92;89.82;102729.22;4937685;29;20058;-92
2023/12/17 11:08:08;;;;;;;16.00;9.57;;;;;;;1.01;89.81;102723.72;4943947;28;20150;-93
2023/12/17 11:10:38;;;;;;;17.83;9.80;;;;;;;1.12;89.59;102717.50;4932791;28;20074;-93
2023/12/17 11:13:05;;;;;;;17.48;9.13;;;;;;;1.02;89.08;102713.47;4918812;28;20050;-92
2023/12/17 11:15:44;;;;;;;18.08;8.30;;;;;;;1.27;89.09;102707.16;4924166;29;20061;-92
2023/12/17 11:18:23;;;;;;;18.33;9.23;;;;;;;1.21;88.43;102707.69;4938533;29;20058;-93
2023/12/17 11:20:53;;;;;;;16.42;9.27;;;;;;;1.39;88.28;102705.31;4954753;29;20059;-92